Time;durP1;ratioP1;P1;durP2;ratioP2;P2;SDS_P1;SDS_P2;PMS_P1;PMS_P2;Temp;Humidity;BMP_temperature;BMP_pressure;BME280_temperature;BME280_humidity;BME280_pressure;Samples;Min_cycle;Max_cycle;Signal;HPM_P1;HPM_P2
2022/01/14 00:01:59;;;;;;;;;4.67;4.67;;;;;21.26;50.18;101489.16;112482;1241;19529;-73
2022/01/14 00:04:26;;;;;;;;;5.00;4.67;;;;;21.27;50.32;101485.69;112426;1241;18364;-75
2022/01/14 00:06:52;;;;;;;;;5.00;5.00;;;;;21.26;50.26;101474.51;112444;1242;19512;-77
2022/01/14 00:09:18;;;;;;;;;5.00;5.00;;;;;21.26;50.09;101476.18;112459;1242;19432;-74
2022/01/14 00:11:47;;;;;;;;;5.00;5.00;;;;;21.27;50.10;101481.66;112294;1241;18882;-77
2022/01/14 00:14:23;;;;;;;;;7.33;5.67;;;;;21.26;50.11;101473.94;112504;1241;18922;-75
2022/01/14 00:16:49;;;;;;;;;4.33;4.00;;;;;21.27;50.23;101477.08;112487;1242;19258;-76
2022/01/14 00:19:15;;;;;;;;;5.33;5.33;;;;;21.27;50.09;101476.90;112475;1242;18485;-73
2022/01/14 00:21:43;;;;;;;;;5.33;5.00;;;;;21.27;50.05;101470.92;112423;1242;19472;-75
2022/01/14 00:24:12;;;;;;;;;5.00;5.00;;;;;21.26;50.20;101474.61;112490;1242;19681;-75
2022/01/14 00:32:16;;;;;;;;;5.67;5.00;;;;;21.28;50.06;101458.06;112470;1241;22209;-75
2022/01/14 00:34:43;;;;;;;;;4.00;4.00;;;;;21.26;49.97;101453.52;112447;1242;18477;-75
2022/01/14 00:37:09;;;;;;;;;5.00;5.00;;;;;21.27;50.04;101450.96;112462;1243;19977;-75
2022/01/14 00:39:36;;;;;;;;;4.67;4.67;;;;;21.27;50.10;101448.77;112440;1241;22897;-77
2022/01/14 00:42:02;;;;;;;;;6.00;5.67;;;;;21.27;50.17;101445.67;112463;1242;18381;-74
2022/01/14 00:44:28;;;;;;;;;4.33;4.33;;;;;21.27;50.02;101440.73;112463;1242;22322;-72
2022/01/14 00:46:54;;;;;;;;;5.00;4.50;;;;;21.27;50.08;101431.98;112477;1242;19241;-77
2022/01/14 00:49:21;;;;;;;;;5.00;5.00;;;;;21.26;50.09;101427.54;112420;1242;18681;-74
2022/01/14 00:51:47;;;;;;;;;5.00;5.00;;;;;21.26;49.92;101422.43;112437;1242;18833;-74
2022/01/14 00:54:13;;;;;;;;;5.00;4.33;;;;;21.26;49.83;101417.92;112455;1241;19337;-74
2022/01/14 00:57:00;;;;;;;;;8.00;6.00;;;;;21.27;49.75;101420.96;112470;1242;18609;-74
2022/01/14 00:59:26;;;;;;;;;4.00;4.00;;;;;21.26;49.92;101428.25;112476;1241;18728;-76
2022/01/14 01:01:52;;;;;;;;;4.33;4.33;;;;;21.27;49.79;101430.13;112460;1242;19429;-74
2022/01/14 01:04:18;;;;;;;;;4.00;4.00;;;;;21.26;50.01;101430.10;112476;1242;18435;-73
2022/01/14 01:06:45;;;;;;;;;4.00;4.00;;;;;21.26;49.89;101429.90;112456;1241;18761;-75
2022/01/14 01:09:12;;;;;;;;;4.00;4.00;;;;;21.27;49.92;101428.88;112503;1242;19434;-74
2022/01/14 01:11:41;;;;;;;;;6.00;5.00;;;;;21.27;49.86;101424.38;112461;1242;18417;-73
2022/01/14 01:14:11;;;;;;;;;5.00;5.00;;;;;21.28;49.83;101424.11;112470;1242;18593;-74
2022/01/14 01:16:37;;;;;;;;;4.00;4.00;;;;;21.26;49.81;101419.40;112478;1242;19386;-74
2022/01/14 01:19:04;;;;;;;;;4.67;4.67;;;;;21.27;49.90;101417.65;112446;1242;18615;-77
2022/01/14 01:21:30;;;;;;;;;5.00;5.00;;;;;21.27;49.79;101408.42;112472;1242;18667;-71
2022/01/14 01:23:56;;;;;;;;;4.00;4.00;;;;;21.28;49.70;101408.28;112482;1242;19561;-72
2022/01/14 01:26:28;;;;;;;;;5.00;5.00;;;;;21.26;50.01;101403.62;112489;1241;21993;-74
2022/01/14 01:29:01;;;;;;;;;5.33;5.00;;;;;21.25;49.78;101392.48;112460;1242;22934;-73
2022/01/14 01:31:38;;;;;;;;;5.00;4.67;;;;;21.26;49.90;101387.02;112448;1242;19541;-73
2022/01/14 01:34:04;;;;;;;;;5.00;4.33;;;;;21.26;49.50;101378.36;112438;1241;18411;-74
2022/01/14 01:36:30;;;;;;;;;4.00;4.00;;;;;21.27;49.84;101384.97;112445;1242;22373;-74
2022/01/14 01:38:56;;;;;;;;;4.00;4.00;;;;;21.27;49.80;101393.33;112455;1242;19609;-71
2022/01/14 01:41:22;;;;;;;;;4.00;4.00;;;;;21.26;49.68;101386.10;112481;1242;18374;-75
2022/01/14 01:43:51;;;;;;;;;5.00;5.00;;;;;21.26;49.69;101380.64;112478;1242;22370;-75
2022/01/14 01:46:19;;;;;;;;;4.33;4.00;;;;;21.25;49.82;101370.29;112473;1241;20348;-72
2022/01/14 01:48:46;;;;;;;;;5.00;4.00;;;;;21.24;49.72;101363.06;112443;1242;18671;-75
2022/01/14 01:51:12;;;;;;;;;5.00;4.00;;;;;21.24;49.75;101361.09;112455;1241;19078;-73
2022/01/14 01:53:38;;;;;;;;;4.00;4.00;;;;;21.25;49.78;101359.55;112458;1242;19534;-73
2022/01/14 01:56:04;;;;;;;;;4.00;4.00;;;;;21.24;49.85;101365.08;112467;1241;18554;-75
2022/01/14 01:58:30;;;;;;;;;4.00;4.00;;;;;21.23;49.70;101365.70;112465;1241;18523;-75
2022/01/14 02:00:57;;;;;;;;;4.00;4.00;;;;;21.24;49.76;101361.42;112485;1241;20038;-76
2022/01/14 02:03:23;;;;;;;;;4.67;4.00;;;;;21.24;49.77;101357.04;112458;1242;18618;-75
2022/01/14 02:05:49;;;;;;;;;8.00;5.00;;;;;21.25;49.71;101353.14;112454;1241;18592;-74
2022/01/14 02:08:15;;;;;;;;;4.00;4.00;;;;;21.26;49.71;101342.71;112498;1243;19256;-76
2022/01/14 02:10:41;;;;;;;;;5.00;4.00;;;;;21.24;49.43;101335.30;112488;1241;18193;-74
2022/01/14 02:13:09;;;;;;;;;5.00;5.00;;;;;21.25;49.59;101331.84;112424;1242;18919;-73
2022/01/14 02:15:48;;;;;;;;;5.33;5.33;;;;;21.24;49.59;101324.01;112430;1241;19428;-73
2022/01/14 02:18:29;;;;;;;;;5.00;4.33;;;;;21.25;49.77;101319.71;112462;1241;18379;-75
2022/01/14 02:23:44;;;;;;;;;2.67;2.67;;;;;21.24;49.68;101319.27;112449;1241;19451;-74
2022/01/14 02:26:11;;;;;;;;;4.00;4.00;;;;;21.25;49.45;101311.94;112508;1242;22867;-76
2022/01/14 02:28:37;;;;;;;;;5.00;5.00;;;;;21.24;49.58;101305.88;112472;1242;19049;-75
2022/01/14 02:31:03;;;;;;;;;4.00;4.00;;;;;21.24;49.62;101303.08;112479;1242;20617;-77
2022/01/14 02:33:30;;;;;;;;;4.00;4.00;;;;;21.24;49.69;101298.38;112479;1242;18672;-74
2022/01/14 02:35:55;;;;;;;;;4.00;4.00;;;;;21.25;49.66;101301.02;112463;1242;20034;-77
2022/01/14 02:38:21;;;;;;;;;4.50;4.00;;;;;21.26;49.63;101303.83;112493;1241;19138;-75
2022/01/14 02:40:48;;;;;;;;;4.00;4.00;;;;;21.25;49.56;101303.77;112466;1242;20038;-75
2022/01/14 02:43:16;;;;;;;;;2.67;2.67;;;;;21.24;49.62;101307.10;112476;1242;18647;-75
2022/01/14 02:45:42;;;;;;;;;4.00;4.00;;;;;21.25;49.67;101310.14;112474;1242;19448;-77
2022/01/14 02:48:08;;;;;;;;;5.00;4.00;;;;;21.24;49.52;101312.89;112472;1242;18374;-75
2022/01/14 02:50:39;;;;;;;;;4.00;4.00;;;;;21.25;49.61;101326.29;112477;1241;18455;-74
2022/01/14 02:53:13;;;;;;;;;4.00;4.00;;;;;21.26;49.64;101326.02;112495;1242;19604;-75
2022/01/14 02:55:43;;;;;;;;;4.00;4.00;;;;;21.25;49.61;101324.99;112456;1242;18420;-77
2022/01/14 02:58:09;;;;;;;;;4.00;4.00;;;;;21.25;49.53;101322.81;112479;1241;22886;-75
2022/01/14 03:00:36;;;;;;;;;4.00;4.00;;;;;21.25;49.61;101320.05;112448;1242;19558;-73
2022/01/14 03:03:02;;;;;;;;;2.67;2.00;;;;;21.24;49.62;101311.46;112478;1242;18489;-75
2022/01/14 03:05:28;;;;;;;;;2.00;2.00;;;;;21.24;49.45;101309.48;112484;1242;18853;-75
2022/01/14 03:07:55;;;;;;;;;4.00;2.00;;;;;21.25;49.36;101314.84;112457;1242;19466;-74
2022/01/14 03:10:21;;;;;;;;;4.33;4.33;;;;;21.25;49.37;101311.57;112505;1242;18275;-74
2022/01/14 03:12:48;;;;;;;;;4.00;4.00;;;;;21.25;49.46;101312.66;112448;1242;19428;-75
2022/01/14 03:15:14;;;;;;;;;4.00;4.00;;;;;21.24;49.47;101300.80;112472;1242;21084;-75
2022/01/14 03:17:41;;;;;;;;;5.00;4.00;;;;;21.24;49.34;101298.58;112437;1241;18747;-73
2022/01/14 03:20:08;;;;;;;;;3.00;3.00;;;;;21.24;49.43;101295.52;112464;1242;18921;-75
2022/01/14 03:22:35;;;;;;;;;4.00;4.00;;;;;21.24;49.41;101296.70;112481;1242;19549;-73
2022/01/14 03:27:46;;;;;;;;;4.00;4.00;;;;;21.23;49.34;101303.77;112467;1242;18684;-77
2022/01/14 03:30:12;;;;;;;;;2.00;2.00;;;;;21.24;49.43;101298.17;112437;1242;19442;-76
2022/01/14 03:32:39;;;;;;;;;2.00;2.00;;;;;21.23;49.36;101300.46;112424;1241;22745;-72
2022/01/14 03:35:05;;;;;;;;;4.67;4.00;;;;;21.24;49.31;101292.27;112525;1242;22844;-74
2022/01/14 03:37:31;;;;;;;;;4.67;4.00;;;;;21.24;49.47;101278.78;112470;1242;19447;-74
2022/01/14 03:39:58;;;;;;;;;4.00;4.00;;;;;21.22;49.29;101271.13;112450;1242;21478;-74
2022/01/14 03:42:23;;;;;;;;;2.00;2.00;;;;;21.23;49.35;101273.39;112467;1242;18668;-76
2022/01/14 03:44:49;;;;;;;;;2.00;2.00;;;;;21.22;49.38;101273.28;112457;1242;19166;-74
2022/01/14 03:47:16;;;;;;;;;4.00;4.00;;;;;21.23;49.44;101272.00;112498;1242;18289;-75
2022/01/14 03:49:42;;;;;;;;;4.00;2.00;;;;;21.23;49.26;101270.17;112448;1241;18651;-79
2022/01/14 03:52:08;;;;;;;;;2.00;2.00;;;;;21.23;49.31;101269.04;112468;1242;19268;-77
2022/01/14 03:54:34;;;;;;;;;4.00;4.00;;;;;21.23;49.19;101270.91;112448;1242;22191;-73
2022/01/14 03:57:00;;;;;;;;;4.00;2.00;;;;;21.23;49.20;101259.80;112495;1241;18458;-76
2022/01/14 03:59:26;;;;;;;;;2.67;2.00;;;;;21.23;49.43;101258.51;112470;1242;19335;-75
2022/01/14 04:01:52;;;;;;;;;2.00;2.00;;;;;21.22;49.14;101252.63;112457;1241;20485;-74
2022/01/14 04:04:18;;;;;;;;;4.00;2.00;;;;;21.22;49.30;101254.64;112441;1242;18635;-75
2022/01/14 04:06:44;;;;;;;;;2.00;2.00;;;;;21.22;49.16;101249.35;112437;1242;19575;-74
2022/01/14 04:09:10;;;;;;;;;2.00;2.00;;;;;21.22;49.32;101240.05;112473;1241;18239;-74
2022/01/14 04:11:38;;;;;;;;;4.00;4.00;;;;;21.23;49.11;101220.73;112467;1242;19836;-74
2022/01/14 04:15:36;;;;;;;;;2.00;2.00;;;;;21.22;49.26;101222.02;112485;1242;19817;-77
2022/01/14 04:16:54;;;;;;;;;4.00;3.33;;;;;21.23;48.98;101225.58;112485;1241;18409;-77
2022/01/14 04:19:21;;;;;;;;;4.00;4.00;;;;;21.24;49.16;101225.52;112455;1242;18643;-74
2022/01/14 04:21:47;;;;;;;;;2.00;2.00;;;;;21.25;49.17;101225.96;112460;1241;19430;-77
2022/01/14 04:24:13;;;;;;;;;2.00;1.00;;;;;21.24;49.08;101219.19;112468;1242;18796;-75
2022/01/14 04:26:39;;;;;;;;;2.00;2.00;;;;;21.24;49.12;101213.90;112452;1242;20073;-74
2022/01/14 04:29:05;;;;;;;;;4.00;4.00;;;;;21.24;49.11;101219.48;112491;1242;19423;-75
2022/01/14 04:31:32;;;;;;;;;2.00;2.00;;;;;21.23;49.19;101215.63;112447;1242;18576;-75
2022/01/14 04:33:58;;;;;;;;;2.67;2.00;;;;;21.23;49.04;101215.56;112460;1242;18867;-74
2022/01/14 04:36:24;;;;;;;;;2.00;2.00;;;;;21.23;49.25;101223.95;112461;1242;19450;-74
2022/01/14 04:38:50;;;;;;;;;2.00;2.00;;;;;21.23;49.26;101212.88;112479;1241;18403;-74
2022/01/14 04:41:16;;;;;;;;;2.00;2.00;;;;;21.24;49.07;101203.58;112484;1242;18414;-75
2022/01/14 04:43:42;;;;;;;;;2.00;2.00;;;;;21.24;48.99;101191.92;112427;1242;19452;-76
2022/01/14 04:48:53;;;;;;;;;4.00;4.00;;;;;21.23;49.05;101172.93;112479;1242;18776;-76
2022/01/14 04:51:21;;;;;;;;;3.33;3.33;;;;;21.25;49.11;101164.21;112479;1242;19438;-74
2022/01/14 04:53:47;;;;;;;;;2.00;2.00;;;;;21.24;48.85;101157.73;112496;1242;20960;-76
2022/01/14 04:56:14;;;;;;;;;4.00;2.00;;;;;21.25;48.91;101169.42;112434;1242;22989;-75
2022/01/14 04:58:40;;;;;;;;;2.00;2.00;;;;;21.25;48.97;101158.93;112473;1242;19715;-75
2022/01/14 05:01:06;;;;;;;;;4.00;4.00;;;;;21.23;49.21;101156.57;112470;1242;18640;-77
2022/01/14 05:03:32;;;;;;;;;2.00;2.00;;;;;21.23;49.08;101147.34;112457;1241;18596;-75
2022/01/14 05:06:00;;;;;;;;;3.00;2.00;;;;;21.22;49.08;101143.02;112458;1242;19204;-74
2022/01/14 05:08:34;;;;;;;;;4.00;4.00;;;;;21.21;48.98;101144.23;112492;1242;18495;-75
2022/01/14 05:11:14;;;;;;;;;2.00;2.00;;;;;21.21;48.98;101142.77;112471;1242;18575;-75
2022/01/14 05:13:40;;;;;;;;;2.00;2.00;;;;;21.22;49.15;101140.34;112471;1242;19434;-75
2022/01/14 05:16:06;;;;;;;;;2.00;2.00;;;;;21.22;48.84;101143.18;112486;1241;18407;-76
2022/01/14 05:18:34;;;;;;;;;1.00;1.00;;;;;21.22;49.09;101135.95;112458;1242;19943;-74
2022/01/14 05:21:00;;;;;;;;;2.00;2.00;;;;;21.22;49.03;101133.77;112510;1242;19585;-75
2022/01/14 05:23:27;;;;;;;;;2.00;2.00;;;;;21.22;49.07;101131.24;112417;1242;18404;-74
2022/01/14 05:25:54;;;;;;;;;2.00;2.00;;;;;21.21;49.11;101119.01;112582;1241;18576;-77
2022/01/14 05:28:20;;;;;;;;;1.67;1.67;;;;;21.22;49.00;101118.88;112516;1242;19370;-74
2022/01/14 05:30:46;;;;;;;;;2.00;2.00;;;;;21.22;49.03;101118.80;112418;1242;18433;-75
2022/01/14 05:33:15;;;;;;;;;2.00;2.00;;;;;21.23;49.07;101116.27;112466;1241;20787;-74
2022/01/14 05:35:41;;;;;;;;;2.00;2.00;;;;;21.23;49.12;101111.70;112448;1241;19496;-74
2022/01/14 05:38:07;;;;;;;;;2.00;2.00;;;;;21.22;49.17;101107.25;112486;1242;18366;-75
2022/01/14 05:40:33;;;;;;;;;2.00;2.00;;;;;21.21;49.04;101098.80;112490;1242;18919;-75
2022/01/14 05:43:00;;;;;;;;;2.00;2.00;;;;;21.21;49.08;101094.98;112456;1242;19651;-74
2022/01/14 05:45:26;;;;;;;;;2.00;2.00;;;;;21.21;48.96;101098.77;112444;1241;20665;-74
2022/01/14 05:47:52;;;;;;;;;2.00;2.00;;;;;21.22;48.98;101099.21;112506;1242;18543;-75
2022/01/14 05:50:18;;;;;;;;;4.00;2.00;;;;;21.23;49.07;101092.92;112475;1242;21023;-75
2022/01/14 05:52:44;;;;;;;;;2.00;2.00;;;;;21.23;49.05;101087.42;112473;1241;18335;-75
2022/01/14 05:55:10;;;;;;;;;1.33;1.33;;;;;21.23;49.06;101080.63;112364;1241;21630;-75
2022/01/14 05:57:38;;;;;;;;;2.00;2.00;;;;;21.19;49.09;101074.07;112456;1240;19470;-73
2022/01/14 06:00:05;;;;;;;;;2.00;2.00;;;;;21.22;49.22;101077.61;112324;1241;20085;-73
2022/01/14 06:02:31;;;;;;;;;2.00;1.33;;;;;21.26;49.58;101081.73;112435;1242;18736;-74
2022/01/14 06:04:57;;;;;;;;;2.00;2.00;;;;;21.26;50.07;101080.06;112506;1241;19480;-73
2022/01/14 06:07:23;;;;;;;;;3.00;2.67;;;;;21.25;50.24;101081.09;112406;1241;18552;-73
2022/01/14 06:09:50;;;;;;;;;1.67;1.67;;;;;21.25;50.25;101076.22;112420;1242;18723;-74
2022/01/14 06:12:16;;;;;;;;;4.00;2.00;;;;;21.24;50.11;101074.48;112281;1241;19522;-76
2022/01/14 06:14:42;;;;;;;;;2.00;2.00;;;;;21.23;50.38;101065.48;112460;1242;18718;-72
2022/01/14 06:17:11;;;;;;;;;3.33;3.33;;;;;21.22;50.24;101063.05;112450;1242;18631;-75
2022/01/14 06:19:37;;;;;;;;;2.00;2.00;;;;;21.24;50.24;101065.80;112312;1241;19836;-73
2022/01/14 06:22:03;;;;;;;;;2.00;2.00;;;;;21.23;50.00;101065.11;112429;1242;18294;-75
2022/01/14 06:24:29;;;;;;;;;2.00;2.00;;;;;21.23;50.03;101064.73;112498;1241;18669;-74
2022/01/14 06:26:55;;;;;;;;;4.00;2.00;;;;;21.24;50.26;101061.97;112480;1242;23730;-75
2022/01/14 06:29:24;;;;;;;;;4.00;4.00;;;;;21.22;50.27;101064.66;112547;1242;18462;-73
2022/01/14 06:31:51;;;;;;;;;2.00;2.00;;;;;21.21;50.18;101062.41;112233;1242;20150;-72
2022/01/14 06:34:17;;;;;;;;;2.00;2.00;;;;;21.22;50.16;101059.24;112430;1242;20063;-74
2022/01/14 06:36:43;;;;;;;;;2.00;2.00;;;;;21.23;50.20;101063.10;112466;1242;20998;-75
2022/01/14 06:39:09;;;;;;;;;4.00;4.00;;;;;21.15;50.47;101054.80;112466;1242;18657;-75
2022/01/14 06:41:37;;;;;;;;;4.00;4.00;;;;;20.14;52.07;101046.61;112412;1242;19522;-73
2022/01/14 06:44:03;;;;;;;;;4.67;4.67;;;;;19.85;53.72;101042.63;112386;1241;20946;-76
2022/01/14 06:46:29;;;;;;;;;7.00;5.00;;;;;19.98;53.95;101043.98;112393;1242;18599;-74
2022/01/14 06:48:56;;;;;;;;;5.00;5.00;;;;;20.26;53.60;101050.79;112410;1242;19397;-74
2022/01/14 06:51:22;;;;;;;;;2.33;2.33;;;;;20.45;53.22;101048.73;112445;1242;18404;-73
2022/01/14 06:53:48;;;;;;;;;5.00;4.50;;;;;20.66;53.33;101053.02;112467;1242;21058;-74
2022/01/14 06:56:14;;;;;;;;;3.00;3.00;;;;;20.85;53.06;101062.42;112436;1242;19453;-74
2022/01/14 06:58:41;;;;;;;;;3.00;3.00;;;;;21.00;52.59;101065.19;112295;1241;18582;-74
2022/01/14 07:01:07;;;;;;;;;2.00;2.00;;;;;21.11;52.04;101066.44;112200;1241;24407;-72
2022/01/14 07:03:34;;;;;;;;;3.33;3.33;;;;;21.22;51.64;101075.44;112186;1242;22478;-72
2022/01/14 07:06:00;;;;;;;;;2.67;2.67;;;;;21.28;51.62;101074.73;112302;1242;22709;-73
2022/01/14 07:08:26;;;;;;;;;2.00;2.00;;;;;21.31;51.37;101066.01;112487;1241;18766;-77
2022/01/14 07:10:52;;;;;;;;;2.67;2.67;;;;;21.37;51.36;101057.66;112384;1242;22798;-75
2022/01/14 07:13:18;;;;;;;;;5.00;4.00;;;;;21.43;51.38;101058.89;112422;1242;18538;-73
2022/01/14 07:15:45;;;;;;;;;4.00;4.00;;;;;21.49;51.55;101049.48;112393;1242;18842;-75
2022/01/14 07:18:11;;;;;;;;;3.33;3.33;;;;;21.53;51.21;101054.14;112402;1241;21639;-74
2022/01/14 07:20:38;;;;;;;;;5.00;4.00;;;;;21.57;51.04;101051.63;112454;1242;18602;-73
2022/01/14 07:23:03;;;;;;;;;2.00;2.00;;;;;21.56;51.25;101050.82;112478;1241;18673;-75
2022/01/14 07:25:30;;;;;;;;;4.67;4.00;;;;;21.54;51.40;101038.32;112413;1242;19884;-73
2022/01/14 07:27:57;;;;;;;;;4.00;4.00;;;;;21.56;51.65;101035.79;112489;1242;18280;-75
2022/01/14 07:30:23;;;;;;;;;4.67;4.67;;;;;21.52;51.70;101033.63;112475;1241;18664;-74
2022/01/14 07:32:49;;;;;;;;;4.00;2.00;;;;;21.50;51.70;101033.59;112494;1242;19367;-74
2022/01/14 07:35:16;;;;;;;;;2.00;2.00;;;;;21.47;51.46;101020.98;112460;1242;18556;-73
2022/01/14 07:37:42;;;;;;;;;4.00;4.00;;;;;21.60;51.43;101019.45;112463;1241;18693;-73
2022/01/14 07:40:08;;;;;;;;;5.33;4.00;;;;;21.76;51.08;101009.27;112432;1242;19456;-76
2022/01/14 07:42:35;;;;;;;;;5.00;4.33;;;;;21.77;51.11;101008.46;112447;1241;18514;-73
2022/01/14 07:45:01;;;;;;;;;4.00;4.00;;;;;21.69;51.03;101011.70;112492;1241;18643;-75
2022/01/14 07:47:27;;;;;;;;;2.67;2.67;;;;;21.64;51.23;101017.21;112464;1241;19699;-74
2022/01/14 07:49:53;;;;;;;;;5.00;5.00;;;;;21.59;51.52;101001.45;112508;1241;18602;-73
2022/01/14 07:52:20;;;;;;;;;4.00;4.00;;;;;21.57;51.49;101009.12;112717;1241;18843;-72
2022/01/14 07:54:47;;;;;;;;;4.67;4.00;;;;;21.54;52.17;101020.19;112474;1242;22670;-73
2022/01/14 07:57:13;;;;;;;;;4.00;4.00;;;;;21.55;51.91;101009.91;112462;1241;20050;-75
2022/01/14 07:59:39;;;;;;;;;4.00;4.00;;;;;21.52;52.21;101005.33;112346;1242;18606;-73
2022/01/14 08:02:05;;;;;;;;;9.00;8.00;;;;;21.51;52.19;101003.79;112332;1241;19435;-75
2022/01/14 08:04:34;;;;;;;;;42.50;34.00;;;;;21.50;52.02;101001.41;112365;1242;18229;-74
2022/01/14 08:07:08;;;;;;;;;65.33;46.67;;;;;21.48;51.91;101007.27;112307;1242;18843;-74
2022/01/14 08:09:35;;;;;;;;;109.00;81.67;;;;;21.49;52.18;100992.76;112383;1241;19772;-75
2022/01/14 08:12:02;;;;;;;;;148.75;106.75;;;;;21.50;52.10;101011.11;112283;1242;18764;-73
2022/01/14 08:14:28;;;;;;;;;153.75;117.50;;;;;21.51;52.45;101012.89;112322;1242;18990;-74
2022/01/14 08:16:55;;;;;;;;;200.00;149.25;;;;;21.53;52.33;101015.59;112259;1241;19372;-73
2022/01/14 08:19:21;;;;;;;;;176.50;133.00;;;;;21.54;52.70;101009.41;112348;1242;18980;-76
2022/01/14 08:21:48;;;;;;;;;181.33;132.00;;;;;21.56;52.57;101005.41;112391;1241;18847;-75
2022/01/14 08:24:15;;;;;;;;;171.67;130.67;;;;;21.59;52.31;101013.25;112361;1242;19352;-74
2022/01/14 08:26:41;;;;;;;;;176.75;128.25;;;;;21.57;52.55;101014.34;112419;1242;19275;-74
2022/01/14 08:29:08;;;;;;;;;140.00;104.00;;;;;21.56;52.87;101011.17;112402;1242;18871;-73
2022/01/14 08:31:34;;;;;;;;;142.25;111.00;;;;;21.56;52.70;101006.16;112382;1242;19436;-73
2022/01/14 08:34:00;;;;;;;;;119.33;87.67;;;;;21.55;53.18;101010.06;112414;1242;18961;-75
2022/01/14 08:36:28;;;;;;;;;114.33;89.00;;;;;21.51;53.21;101007.58;112433;1241;24651;-73
2022/01/14 08:38:55;;;;;;;;;117.00;92.00;;;;;21.50;52.89;101012.41;112452;1242;19363;-74
2022/01/14 08:41:23;;;;;;;;;97.33;71.00;;;;;21.52;52.54;101005.84;112315;1241;18978;-74
2022/01/14 08:43:49;;;;;;;;;98.50;67.00;;;;;21.54;52.33;101010.37;112188;1242;22414;-75
2022/01/14 08:46:15;;;;;;;;;96.33;69.33;;;;;21.53;52.02;101021.73;112255;1242;22712;-73
2022/01/14 08:48:43;;;;;;;;;89.67;66.33;;;;;21.54;52.13;101009.27;112400;1241;18876;-75
2022/01/14 08:51:09;;;;;;;;;94.50;68.00;;;;;21.54;52.12;101008.52;112450;1242;19484;-73
2022/01/14 08:53:35;;;;;;;;;88.33;64.67;;;;;21.54;52.27;101014.69;112429;1242;19269;-73
2022/01/14 08:56:02;;;;;;;;;84.33;62.67;;;;;21.54;52.24;101015.11;112403;1241;18859;-73
2022/01/14 08:58:28;;;;;;;;;80.67;57.67;;;;;21.55;52.22;101008.92;112413;1242;18754;-76
2022/01/14 09:00:54;;;;;;;;;82.67;61.33;;;;;21.54;52.07;101013.77;112464;1241;20016;-74
2022/01/14 09:03:20;;;;;;;;;76.67;57.33;;;;;21.54;52.23;101017.26;112446;1242;18566;-74
2022/01/14 09:05:47;;;;;;;;;79.00;57.00;;;;;21.55;52.28;101012.71;112391;1242;18927;-75
2022/01/14 09:08:13;;;;;;;;;84.33;58.00;;;;;21.55;52.37;101005.14;112255;1241;19539;-73
2022/01/14 09:10:39;;;;;;;;;75.33;55.33;;;;;21.57;52.61;101011.09;112351;1242;18884;-75
2022/01/14 09:13:05;;;;;;;;;71.67;53.00;;;;;21.57;52.50;101007.41;112274;1242;19432;-77
2022/01/14 09:15:31;;;;;;;;;73.00;53.50;;;;;21.58;52.62;101000.29;112403;1241;19221;-75
2022/01/14 09:17:57;;;;;;;;;65.67;50.00;;;;;21.58;52.52;101001.37;112433;1242;18628;-77
2022/01/14 09:20:23;;;;;;;;;63.33;47.67;;;;;21.57;52.42;100999.84;112441;1241;18455;-73
2022/01/14 09:22:51;;;;;;;;;68.33;51.67;;;;;21.56;52.42;101003.43;112389;1242;19230;-75
2022/01/14 09:25:17;;;;;;;;;67.00;50.00;;;;;21.55;52.33;100996.83;112381;1242;18776;-74
2022/01/14 09:27:43;;;;;;;;;64.33;47.67;;;;;21.53;52.36;100989.17;112358;1241;18912;-77
2022/01/14 09:30:09;;;;;;;;;59.00;41.50;;;;;21.54;52.37;100997.78;112427;1242;19229;-74
2022/01/14 09:32:36;;;;;;;;;58.67;43.00;;;;;21.55;52.10;100998.90;112464;1240;18626;-74
2022/01/14 09:35:03;;;;;;;;;52.00;41.33;;;;;21.56;52.07;100994.15;112459;1241;18748;-74
2022/01/14 09:37:29;;;;;;;;;53.67;42.33;;;;;21.57;51.99;100994.19;112447;1242;19540;-74
2022/01/14 09:39:56;;;;;;;;;52.67;42.00;;;;;21.57;52.06;100989.04;112466;1242;18715;-74
2022/01/14 09:42:22;;;;;;;;;52.33;40.33;;;;;21.58;51.88;100993.91;112467;1242;19179;-73
2022/01/14 09:44:48;;;;;;;;;56.50;42.00;;;;;21.59;51.52;100996.85;112459;1242;21177;-73
2022/01/14 09:47:14;;;;;;;;;48.00;37.50;;;;;21.62;51.63;100995.77;112403;1241;18379;-74
2022/01/14 09:49:40;;;;;;;;;57.00;42.00;;;;;21.65;51.48;100990.17;112557;1242;18779;-73
2022/01/14 09:52:07;;;;;;;;;50.00;40.00;;;;;21.67;51.13;100983.41;112324;1241;19211;-74
2022/01/14 09:54:33;;;;;;;;;48.33;36.67;;;;;21.64;51.21;100994.70;112982;1241;18604;-74
2022/01/14 09:56:59;;;;;;;;;43.67;35.67;;;;;21.64;51.48;101002.11;112255;1242;18768;-74
2022/01/14 09:59:26;;;;;;;;;40.67;37.67;;;;;21.65;51.81;100993.48;112525;1242;19451;-76
2022/01/14 10:01:52;;;;;;;;;37.00;30.00;;;;;21.66;51.54;100997.95;112425;1242;18532;-74
2022/01/14 10:04:18;;;;;;;;;37.67;33.00;;;;;21.66;52.09;100991.98;112380;1242;21184;-75
2022/01/14 10:06:45;;;;;;;;;41.33;31.33;;;;;21.65;51.93;100988.38;112381;1241;19431;-76
2022/01/14 10:09:12;;;;;;;;;38.00;34.50;;;;;21.64;51.69;100995.05;112491;1242;19969;-74
2022/01/14 10:11:38;;;;;;;;;35.67;32.33;;;;;21.61;51.66;100986.60;112436;1242;23086;-76
2022/01/14 10:14:04;;;;;;;;;41.00;32.33;;;;;21.59;51.33;100984.98;112401;1242;22549;-75
2022/01/14 10:16:30;;;;;;;;;39.33;33.33;;;;;21.60;51.33;101002.02;112372;1242;18576;-74
2022/01/14 10:18:56;;;;;;;;;28.00;25.00;;;;;21.60;51.51;100992.96;112286;1241;18478;-74
2022/01/14 10:21:22;;;;;;;;;25.33;23.67;;;;;21.53;51.06;100994.45;112450;1242;19764;-74
2022/01/14 10:23:48;;;;;;;;;24.00;21.00;;;;;21.19;50.29;100985.08;112366;1242;18520;-72
2022/01/14 10:26:15;;;;;;;;;22.00;21.00;;;;;20.98;50.22;100991.07;112396;1241;18526;-72
2022/01/14 10:28:44;;;;;;;;;22.00;18.50;;;;;20.85;49.83;100995.81;112410;1242;19648;-74
2022/01/14 10:31:10;;;;;;;;;18.33;17.33;;;;;20.98;50.12;100993.83;112367;1242;23378;-74
2022/01/14 10:33:36;;;;;;;;;22.67;19.00;;;;;21.16;49.69;100995.06;112376;1241;18561;-74
2022/01/14 10:36:03;;;;;;;;;21.00;18.00;;;;;21.26;49.46;100988.31;112301;1242;19414;-74
2022/01/14 10:38:30;;;;;;;;;21.67;18.67;;;;;21.32;49.36;100988.64;112430;1242;19013;-74
2022/01/14 10:40:56;;;;;;;;;21.67;21.00;;;;;21.36;49.30;100988.65;112409;1242;18877;-74
2022/01/14 10:43:22;;;;;;;;;20.00;17.50;;;;;21.36;49.41;100993.31;112348;1242;19505;-75
2022/01/14 10:45:49;;;;;;;;;21.00;20.00;;;;;21.35;49.53;100990.52;112438;1241;18809;-74
2022/01/14 10:48:16;;;;;;;;;20.00;18.00;;;;;21.37;49.37;100984.55;112425;1242;22651;-74
2022/01/14 10:50:42;;;;;;;;;20.00;18.00;;;;;21.38;49.35;100986.62;112436;1242;19548;-76
2022/01/14 10:53:08;;;;;;;;;20.33;18.67;;;;;21.38;49.62;100980.76;112452;1242;22510;-75
2022/01/14 10:55:34;;;;;;;;;20.67;17.00;;;;;21.38;49.51;100974.11;112415;1242;18755;-75
2022/01/14 10:58:01;;;;;;;;;17.67;17.67;;;;;21.37;49.61;100974.49;112418;1242;19374;-76
2022/01/14 11:00:28;;;;;;;;;26.00;17.50;;;;;21.38;49.62;100986.59;112446;1241;18658;-77
2022/01/14 11:02:54;;;;;;;;;20.67;17.67;;;;;21.39;49.58;100983.61;112391;1241;23852;-74
2022/01/14 11:05:21;;;;;;;;;20.00;17.00;;;;;21.40;49.65;100984.86;112434;1241;19449;-74
2022/01/14 11:07:47;;;;;;;;;18.00;17.00;;;;;21.43;49.45;100981.09;112314;1242;19438;-76
2022/01/14 11:10:13;;;;;;;;;18.67;17.33;;;;;21.42;49.42;100980.98;112447;1242;18864;-76
2022/01/14 11:12:39;;;;;;;;;20.67;17.67;;;;;21.40;49.51;100972.52;112406;1242;21261;-75
2022/01/14 11:15:06;;;;;;;;;20.67;18.67;;;;;21.39;49.55;100969.39;112433;1242;18768;-73
2022/01/14 11:17:32;;;;;;;;;21.00;15.33;;;;;21.38;49.75;100972.06;112434;1241;18857;-74
2022/01/14 11:19:58;;;;;;;;;17.00;16.00;;;;;21.39;49.71;100968.78;112415;1242;19146;-74
2022/01/14 11:25:09;;;;;;;;;20.33;16.00;;;;;21.48;49.64;100953.08;112326;1241;20114;-75
2022/01/14 11:27:34;;;;;;;;;17.00;17.00;;;;;21.51;49.76;100958.73;112372;1242;19310;-74